Data for 05/08/2005

Time Sea-Level Adjusted Pressure Absolute Pressure Temperature Relative Humidity Dew Point   
(mb) (inHg) (mb) (inHg) (C) (F) (%) (C) (F)
00:05 1013 29.91 843 24.89 8.5 47.3 90 7 44.7
00:10 1014 29.94 843 24.89 8.5 47.3 91 7.1 44.7
00:15 1014 29.94 843 24.89 8.4 47 90 6.8 44.3
00:20 1014 29.94 843 24.89 8.5 47.3 88 6.7 44
00:25 1014 29.94 843 24.89 8.5 47.3 89 6.8 44.2
00:30 1014 29.94 843 24.89 8.5 47.2 89 6.8 44.3
00:35 1014 29.94 843 24.89 8.3 47 90 6.8 44.2
00:40 1014 29.94 843 24.89 8.3 46.9 90 6.7 44.1
00:45 1014 29.94 843 24.89 8.4 47.1 90 6.8 44.3
00:50 1014 29.94 843 24.89 8.3 46.9 90 6.7 44.1
00:55 1014 29.94 843 24.89 8.5 47.3 89 6.8 44.2
01:00 1014 29.94 843 24.89 8.6 47.4 89 6.8 44.3
01:05 1014 29.94 843 24.89 8.6 47.5 89 7 44.6
01:10 1014 29.94 843 24.89 8.6 47.5 90 7.1 44.8
01:15 1014 29.94 843 24.89 8.5 47.4 90 7 44.7
01:20 1014 29.94 843 24.89 8.5 47.3 90 7 44.6
01:25 1014 29.94 843 24.89 8.6 47.4 90 7 44.6
01:30 1014 29.94 843 24.89 8.6 47.5 89 7 44.6
01:35 1014 29.94 843 24.89 8.6 47.5 91 7.2 44.9
01:40 1014 29.94 843 24.89 8.6 47.4 90 7 44.5
01:45 1014 29.94 843 24.89 8.5 47.2 91 7.1 44.8
01:50 1014 29.94 843 24.89 8.4 47.1 92 7.1 44.8
01:55 1014 29.94 843 24.89 8.4 47.1 92 7.1 44.8
02:00 1014 29.94 843 24.89 8.3 46.9 92 7.1 44.8
02:05 1014 29.94 843 24.89 7.9 46.2 95 7.1 44.8
02:10 1014 29.94 843 24.89 7.7 45.8 95 7 44.6
02:15 1014 29.94 843 24.89 7.6 45.6 95 6.8 44.3
02:20 1014 29.94 843 24.89 7.6 45.8 95 6.9 44.4
02:25 1014 29.94 843 24.89 7.8 46 95 7 44.6
02:30 1014 29.94 843 24.89 7.9 46.1 93 6.7 44.1
02:35 1014 29.94 843 24.89 7.9 46.3 93 6.9 44.5
02:40 1014 29.94 843 24.89 7.8 46.1 94 6.9 44.4
02:45 1014 29.94 843 24.89 7.6 45.7 94 6.8 44.2
02:50 1014 29.94 843 24.89 7.6 45.7 95 6.8 44.2
02:55 1014 29.94 844 24.92 7.7 45.9 95 6.9 44.4
03:00 1014 29.94 844 24.92 7.7 45.9 95 6.9 44.5
03:05 1014 29.94 844 24.92 7.8 46.1 94 6.9 44.3
03:10 1014 29.94 844 24.92 7.9 46.2 94 7 44.6
03:15 1014 29.94 844 24.92 7.9 46.2 93 6.9 44.4
03:20 1014 29.94 844 24.92 7.7 45.9 94 6.9 44.4
03:25 1015 29.97 844 24.92 7.7 45.9 95 6.9 44.4
03:30 1015 29.97 844 24.92 7.6 45.7 94 6.7 44.1
03:35 1015 29.97 844 24.92 7.4 45.4 94 6.6 43.9
03:40 1015 29.97 844 24.92 7.3 45.2 95 6.6 43.8
03:45 1015 29.97 844 24.92 7.4 45.2 95 6.6 43.9
03:50 1015 29.97 844 24.92 7.3 45.2 94 6.5 43.7
03:55 1015 29.97 844 24.92 7.3 45.1 95 6.5 43.7
04:00 1015 29.97 844 24.92 7.2 45 94 6.4 43.5
04:05 1015 29.97 844 24.92 7.2 45 95 6.4 43.6
04:10 1015 29.97 844 24.92 7.2 44.9 95 6.4 43.5
04:15 1015 29.97 844 24.92 7.1 44.8 94 6.3 43.3
04:20 1015 29.97 844 24.92 7.2 45 94 6.2 43.2
04:25 1015 29.97 844 24.92 7.2 45 94 6.3 43.4
04:30 1015 29.97 844 24.92 7.2 44.9 95 6.4 43.5
04:35 1015 29.97 844 24.92 7.1 44.7 95 6.3 43.4
04:40 1015 29.97 844 24.92 7 44.6 95 6.3 43.4
04:45 1015 29.97 844 24.92 7 44.6 95 6.3 43.4
04:50 1015 29.97 844 24.92 7 44.7 95 6.3 43.3
04:55 1015 29.97 844 24.92 7 44.6 95 6.3 43.3
05:00 1015 29.97 844 24.92 6.9 44.5 96 6.3 43.3
05:05 1015 29.97 845 24.95 7 44.6 94 6.1 43.1
05:10 1015 29.97 845 24.95 6.9 44.4 94 6.1 42.9
05:15 1015 29.97 845 24.95 6.9 44.5 94 6 42.8
05:20 1015 29.97 845 24.95 6.9 44.5 93 5.9 42.7
05:25 1015 29.97 845 24.95 7 44.5 93 5.9 42.6
05:30 1016 30 845 24.95 7 44.6 93 6 42.7
05:35 1016 30 845 24.95 6.9 44.4 93 5.9 42.6
05:40 1016 30 845 24.95 6.8 44.3 93 5.7 42.3
05:45 1016 30 845 24.95 6.8 44.2 93 5.7 42.3
05:50 1016 30 845 24.95 6.8 44.2 92 5.6 42.1
05:55 1016 30 845 24.95 6.7 44.1 92 5.6 42.1
06:00 1016 30 845 24.95 6.8 44.3 92 5.6 42.1
06:05 1016 30 845 24.95 6.9 44.4 92 5.6 42.2
06:10 1016 30 845 24.95 6.8 44.3 92 5.5 42
06:15 1016 30 845 24.95 6.7 44 93 5.6 42
06:20 1016 30 845 24.95 6.7 44.1 92 5.5 42
06:25 1016 30 845 24.95 6.8 44.2 92 5.5 41.9
06:30 1016 30 845 24.95 6.9 44.4 92 5.7 42.2
06:35 1016 30 845 24.95 6.9 44.5 90 5.4 41.7
06:40 1016 30 845 24.95 7 44.6 91 5.7 42.2
06:45 1016 30 845 24.95 7.1 44.8 90 5.6 42.1
06:50 1016 30 845 24.95 7 44.6 91 5.6 42.1
06:55 1016 30 845 24.95 7 44.7 90 5.4 41.8
07:00 1016 30 845 24.95 7 44.6 91 5.6 42.1
07:05 1016 30 845 24.95 7 44.6 91 5.6 42
07:10 1016 30 845 24.95 7 44.6 90 5.5 41.9
07:15 1016 30 845 24.95 7 44.7 90 5.6 42
07:20 1016 30 845 24.95 7.1 44.7 89 5.4 41.7
07:25 1016 30 845 24.95 7 44.7 90 5.5 42
07:30 1016 30 845 24.95 7 44.7 90 5.6 42
07:35 1016 30 845 24.95 7.1 44.7 90 5.6 42.1
07:40 1016 30 845 24.95 7.1 44.8 89 5.4 41.8
07:45 1016 30 846 24.98 7.4 45.3 89 5.7 42.3
07:50 1016 30 846 24.98 7.3 45.2 90 5.7 42.3
07:55 1016 30 846 24.98 7.3 45.2 88 5.6 42
08:00 1017 30.03 846 24.98 7.2 45 88 5.4 41.7
08:05 1017 30.03 846 24.98 7.2 44.9 88 5.2 41.4
08:10 1017 30.03 846 24.98 7.1 44.7 89 5.3 41.6
08:15 1017 30.03 846 24.98 7.1 44.7 88 5.2 41.3
08:20 1017 30.03 846 24.98 7 44.6 88 5.2 41.4
08:25 1017 30.03 846 24.98 7.1 44.7 87 5.1 41.1
08:30 1017 30.03 846 24.98 7.2 44.9 87 5.2 41.3
08:35 1017 30.03 846 24.98 7.1 44.9 88 5.3 41.5
08:40 1017 30.03 846 24.98 7.3 45.1 88 5.4 41.7
08:45 1017 30.03 846 24.98 7.4 45.3 88 5.6 42.1
08:50 1017 30.03 846 24.98 7.4 45.4 88 5.6 42.1
08:55 1017 30.03 846 24.98 7.3 45.2 87 5.4 41.7
09:00 1017 30.03 846 24.98 7.5 45.5 87 5.6 42
09:05 1017 30.03 846 24.98 7.6 45.7 87 5.6 42
09:10 1017 30.03 846 24.98 7.6 45.6 86 5.3 41.6
09:15 1017 30.03 846 24.98 7.6 45.7 87 5.5 41.9
09:20 1017 30.03 846 24.98 7.7 45.8 87 5.6 42.1
09:25 1017 30.03 846 24.98 7.8 46.1 87 5.7 42.3
09:30 1017 30.03 846 24.98 8 46.4 85 5.7 42.2
09:35 1017 30.03 846 24.98 8.2 46.8 84 5.7 42.3
09:40 1017 30.03 846 24.98 8.4 47.1 84 5.9 42.6
09:45 1017 30.03 846 24.98 8.6 47.4 82 5.7 42.3
09:50 1017 30.03 846 24.98 8.5 47.3 82 5.7 42.3
09:55 1017 30.03 846 24.98 8.5 47.3 82 5.7 42.2
10:00 1017 30.03 846 24.98 8.8 47.8 80 5.5 42
10:05 1017 30.03 846 24.98 8.6 47.4 80 5.4 41.7
10:10 1017 30.03 846 24.98 8.8 47.9 81 5.7 42.3
10:15 1017 30.03 846 24.98 9.1 48.4 78 5.5 41.9
10:20 1017 30.03 846 24.98 9.2 48.5 77 5.4 41.7
10:25 1017 30.03 846 24.98 9.4 49 77 5.5 42
10:30 1017 30.03 846 24.98 9.5 49 75 5.2 41.4
10:35 1017 30.03 846 24.98 9.8 49.6 73 5.1 41.3
10:40 1017 30.03 846 24.98 10.2 50.4 72 5.5 41.9
10:45 1017 30.03 846 24.98 10.6 51 72 5.8 42.4
10:50 1017 30.03 846 24.98 11.7 53 66 5.7 42.2
10:55 1017 30.03 846 24.98 12.3 54.1 66 6 42.9
11:00 1017 30.03 846 24.98 12.2 53.9 63 5.3 41.6
11:05 1017 30.03 846 24.98 12.6 54.7 62 5.7 42.3
11:10 1017 30.03 846 24.98 13.3 55.9 57 4.9 40.8
11:15 1017 30.03 846 24.98 14.1 57.3 55 5.3 41.5
11:20 1017 30.03 846 24.98 13.7 56.6 54 4.5 40
11:25 1017 30.03 846 24.98 12.1 53.8 53 3 37.3
11:30 1017 30.03 846 24.98 12.1 53.7 53 2.8 37.1
11:35 1017 30.03 846 24.98 13.2 55.8 48 2.4 36.4
11:40 1017 30.03 846 24.98 13.2 55.7 51 3.4 38.1
11:45 1017 30.03 846 24.98 13.3 55.9 49 2.8 37.1
11:50 1017 30.03 846 24.98 13.8 56.8 50 3.5 38.3
11:55 1017 30.03 846 24.98 13.3 55.9 50 3.2 37.7
12:00 1016 30 846 24.98 14.3 57.7 46 3 37.3
12:05 1016 30 846 24.98 14.3 57.7 48 3.6 38.5
12:10 1016 30 846 24.98 14.5 58 48 3.7 38.7
12:15 1016 30 845 24.95 15 58.9 49 4.4 39.8
12:20 1016 30 845 24.95 14.8 58.7 50 4.6 40.3
12:25 1016 30 845 24.95 13.9 57 51 4.1 39.3
12:30 1016 30 845 24.95 13.9 56.9 52 4.3 39.8
12:35 1016 30 845 24.95 13.1 55.5 54 4 39.2
12:40 1016 30 845 24.95 13.7 56.6 51 3.8 38.9
12:45 1016 30 845 24.95 13.8 56.8 49 3.3 37.9
12:50 1016 30 845 24.95 14.8 58.6 45 3 37.3
12:55 1016 30 845 24.95 14.9 58.9 44 2.9 37.2
13:00 1016 30 845 24.95 15 59 45 3.2 37.7
13:05 1016 30 845 24.95 14.9 58.7 45 3.2 37.7
13:10 1016 30 845 24.95 15.4 59.6 38 1.2 34.2
13:15 1016 30 845 24.95 15.5 60 38 1.5 34.7
13:20 1016 30 845 24.95 15.7 60.2 42 2.8 37
13:25 1016 30 845 24.95 15.2 59.4 41 2 35.6
13:30 1016 30 845 24.95 15.3 59.5 42 2.4 36.4
13:35 1016 30 845 24.95 15.1 59.2 43 2.6 36.8
13:40 1016 30 845 24.95 15.5 59.8 39 1.7 35
13:45 1016 30 845 24.95 16 60.8 41 2.8 37.1
13:50 1016 30 845 24.95 15.3 59.5 44 3.2 37.7
13:55 1015 29.97 845 24.95 15 59 44 2.8 37
14:00 1015 29.97 845 24.95 15.2 59.3 42 2.5 36.4
14:05 1015 29.97 845 24.95 14.8 58.6 44 2.7 36.8
14:10 1015 29.97 845 24.95 14.6 58.2 44 2.5 36.5
14:15 1015 29.97 845 24.95 14.4 57.8 42 1.9 35.3
14:20 1015 29.97 845 24.95 14.4 57.8 41 1.4 34.6
14:25 1015 29.97 845 24.95 14.7 58.5 40 1.5 34.7
14:30 1015 29.97 845 24.95 14.9 58.7 39 1 33.8
14:35 1015 29.97 844 24.92 15.7 60.3 37 1.2 34.1
14:40 1015 29.97 844 24.92 16.3 61.4 36 1.2 34.1
14:45 1015 29.97 844 24.92 16 60.8 36 1.1 33.9
14:50 1015 29.97 844 24.92 16.1 60.9 36 1.3 34.3
14:55 1015 29.97 844 24.92 15.7 60.3 38 1.4 34.4
15:00 1015 29.97 844 24.92 15.2 59.4 39 1.3 34.4
15:05 1015 29.97 844 24.92 15.3 59.5 39 1.5 34.7
15:10 1015 29.97 844 24.92 16.2 61.2 35 1 33.9
15:15 1015 29.97 844 24.92 16 60.8 37 1.4 34.5
15:20 1015 29.97 844 24.92 15.5 59.9 41 2.3 36.1
15:25 1015 29.97 844 24.92 15 59.1 42 2.4 36.3
15:30 1015 29.97 844 24.92 14.9 58.8 41 1.8 35.3
15:35 1015 29.97 844 24.92 15.1 59.1 40 1.8 35.3
15:40 1015 29.97 844 24.92 14.9 58.8 41 1.9 35.4
15:45 1015 29.97 844 24.92 14.7 58.5 41 1.8 35.2
15:50 1015 29.97 844 24.92 14.6 58.3 41 1.7 35
15:55 1015 29.97 844 24.92 14.6 58.2 42 2 35.5
16:00 1015 29.97 844 24.92 14.7 58.5 42 2.1 35.7
16:05 1015 29.97 844 24.92 14.7 58.4 42 1.8 35.3
16:10 1015 29.97 844 24.92 14.4 57.9 45 2.6 36.6
16:15 1015 29.97 844 24.92 14.4 57.9 45 2.7 36.8
16:20 1015 29.97 844 24.92 13.5 56.3 59 5.7 42.2
16:25 1015 29.97 844 24.92 12.1 53.8 63 5.3 41.5
16:30 1015 29.97 844 24.92 11.4 52.5 68 5.7 42.2
16:35 1015 29.97 844 24.92 11.4 52.4 68 5.7 42.3
16:40 1015 29.97 844 24.92 11 51.9 69 5.6 42.1
16:45 1015 29.97 844 24.92 11 51.8 69 5.6 42
16:50 1015 29.97 844 24.92 11.1 51.9 70 5.8 42.4
16:55 1015 29.97 844 24.92 10.9 51.6 70 5.7 42.2
17:00 1015 29.97 844 24.92 10.8 51.4 70 5.6 42.1
17:05 1015 29.97 844 24.92 10.7 51.2 72 5.9 42.6
17:10 1015 29.97 844 24.92 10.8 51.5 71 5.9 42.6
17:15 1015 29.97 844 24.92 11.1 52 69 5.6 42
17:20 1015 29.97 844 24.92 11 51.8 73 6.4 43.5
17:25 1015 29.97 844 24.92 11.1 51.9 68 5.5 41.8
17:30 1015 29.97 844 24.92 11.2 52.2 70 6.1 42.9
17:35 1015 29.97 844 24.92 11.1 52 72 6.3 43.3
17:40 1015 29.97 844 24.92 11.3 52.3 73 6.6 44
17:45 1015 29.97 844 24.92 11.6 52.9 69 6.1 42.9
17:50 1015 29.97 844 24.92 11.8 53.2 70 6.4 43.6
17:55 1015 29.97 844 24.92 12 53.5 73 7.3 45.2
18:00 1015 29.97 844 24.92 11.7 53.1 75 7.5 45.6
18:05 1015 29.97 844 24.92 11.6 52.8 75 7.3 45.1
18:10 1015 29.97 844 24.92 11.8 53.2 71 6.7 44.1
18:15 1015 29.97 844 24.92 12 53.6 61 4.9 40.7
18:20 1015 29.97 844 24.92 12.2 53.9 60 4.7 40.4
18:25 1015 29.97 844 24.92 12.1 53.8 61 4.9 40.9
18:30 1015 29.97 844 24.92 12.1 53.8 60 4.6 40.3
18:35 1015 29.97 844 24.92 12 53.5 60 4.6 40.2
18:40 1015 29.97 844 24.92 11.9 53.5 62 5 41
18:45 1015 29.97 844 24.92 11.9 53.4 63 5.1 41.2
18:50 1015 29.97 844 24.92 11.8 53.2 66 5.6 42
18:55 1015 29.97 844 24.92 11.3 52.4 68 5.6 42.1
19:00 1015 29.97 844 24.92 11 51.7 69 5.5 42
19:05 1015 29.97 844 24.92 10.7 51.3 71 5.6 42.1
19:10 1015 29.97 844 24.92 10.6 51.1 71 5.6 42
19:15 1015 29.97 844 24.92 10.5 50.9 71 5.6 42.1
19:20 1015 29.97 844 24.92 10.4 50.7 73 5.8 42.4
19:25 1015 29.97 844 24.92 10.3 50.6 72 5.6 42
19:30 1015 29.97 844 24.92 10.4 50.7 72 5.6 42
19:35 1015 29.97 844 24.92 10.3 50.5 72 5.5 41.9
19:40 1015 29.97 844 24.92 10.3 50.5 70 5 41.1
19:45 1015 29.97 844 24.92 10.2 50.3 68 4.7 40.4
19:50 1015 29.97 844 24.92 10.2 50.3 70 5 41
19:55 1015 29.97 844 24.92 10.1 50.2 72 5.3 41.5
20:00 1015 29.97 844 24.92 10.1 50.1 71 5 41
20:05 1015 29.97 844 24.92 10 49.9 71 5 41
20:10 1015 29.97 844 24.92 9.9 49.9 71 5 40.9
20:15 1015 29.97 844 24.92 9.9 49.8 72 5.1 41.2
20:20 1015 29.97 844 24.92 9.8 49.6 73 5.1 41.2
20:25 1015 29.97 844 24.92 9.7 49.5 72 4.9 40.8
20:30 1015 29.97 844 24.92 9.6 49.3 74 5.2 41.4
20:35 1015 29.97 844 24.92 9.5 49 71 4.5 40.2
20:40 1015 29.97 844 24.92 9.5 49.1 71 4.5 40.1
20:45 1015 29.97 844 24.92 9.5 49 70 4.3 39.7
20:50 1015 29.97 844 24.92 9.5 49.1 68 3.9 39.1
20:55 1015 29.97 844 24.92 9.5 49.1 68 4 39.2
21:00 1015 29.97 844 24.92 9.4 49 68 3.9 39.1
21:05 1015 29.97 844 24.92 9.4 48.8 67 3.7 38.6
21:10 1015 29.97 844 24.92 9.3 48.7 67 3.4 38.2
21:15 1015 29.97 844 24.92 9.3 48.7 66 3.3 38
21:20 1015 29.97 844 24.92 9.2 48.6 65 3 37.4
21:25 1015 29.97 844 24.92 9.2 48.6 66 3.1 37.7
21:30 1015 29.97 844 24.92 9.2 48.5 65 3 37.5
21:35 1015 29.97 844 24.92 9.1 48.5 65 3 37.3
21:40 1015 29.97 844 24.92 9.1 48.3 66 3 37.4
21:45 1015 29.97 844 24.92 9 48.2 65 2.8 37.1
21:50 1015 29.97 844 24.92 9 48.2 65 2.9 37.1
21:55 1015 29.97 844 24.92 8.9 48 65 2.8 37
22:00 1015 29.97 844 24.92 8.9 47.9 65 2.8 37
22:05 1015 29.97 844 24.92 8.8 47.8 66 2.7 36.8
22:10 1015 29.97 844 24.92 8.7 47.7 66 2.7 36.9
22:15 1015 29.97 844 24.92 8.7 47.7 65 2.6 36.6
22:20 1015 29.97 844 24.92 8.7 47.7 65 2.5 36.6
22:25 1015 29.97 844 24.92 8.7 47.7 64 2.4 36.3
22:30 1014 29.94 844 24.92 8.8 47.8 65 2.5 36.6
22:35 1014 29.94 844 24.92 8.8 47.8 64 2.3 36.2
22:40 1014 29.94 844 24.92 8.7 47.7 64 2.3 36.1
22:45 1014 29.94 843 24.89 8.7 47.7 64 2.4 36.3
22:50 1014 29.94 844 24.92 8.7 47.6 65 2.4 36.3
22:55 1014 29.94 844 24.92 8.6 47.5 65 2.4 36.4
23:00 1014 29.94 843 24.89 8.6 47.5 66 2.6 36.6
23:05 1014 29.94 843 24.89 8.6 47.4 66 2.7 36.8
23:10 1014 29.94 843 24.89 8.6 47.5 67 2.8 37
23:15 1014 29.94 843 24.89 8.6 47.4 67 2.8 37
23:20 1014 29.94 843 24.89 8.5 47.4 67 2.8 37.1
23:25 1014 29.94 843 24.89 8.5 47.3 68 2.9 37.3
23:30 1014 29.94 843 24.89 8.6 47.4 68 3 37.4
23:35 1014 29.94 843 24.89 8.7 47.6 68 3.1 37.5
23:40 1014 29.94 843 24.89 8.8 47.8 68 3.2 37.8
23:45 1014 29.94 843 24.89 8.7 47.7 68 3.2 37.7
23:50 1014 29.94 844 24.92 8.7 47.6 69 3.3 37.9
23:55 1014 29.94 844 24.92 8.6 47.5 69 3.2 37.8
24:00 1015 29.97 844 24.92 8.7 47.6 69 3.3 37.9